Time,TemperatureF,DewpointF,PressureIn,WindDirection,WindDirectionDegrees,WindSpeedMPH,WindSpeedGustMPH,Humidity,HourlyPrecipIn,Conditions,Clouds,dailyrainin,SoftwareType,DateUTC
2013-03-06 00:00:00,32.0,-99.9,-100.00,NNE,28,2.0,-999.0,-999,-99.99,,,-99.99,,2013-03-06 08:00:00,
2013-03-06 00:52:00,32.0,-99.9,-100.00,NNE,28,2.0,-999.0,-999,-99.99,,,-99.99,,2013-03-06 08:52:00,
2013-03-06 01:00:00,31.0,-99.9,-100.00,NW,323,2.0,-999.0,-999,-99.99,,,-99.99,,2013-03-06 09:00:00,
2013-03-06 02:00:00,31.0,-99.9,-100.00,NNW,346,1.0,-999.0,-999,-99.99,,,-99.99,,2013-03-06 10:00:00,
2013-03-06 02:52:00,31.0,-99.9,-100.00,NNW,346,1.0,-999.0,-999,-99.99,,,-99.99,,2013-03-06 10:52:00,
2013-03-06 03:00:00,31.0,-99.9,-100.00,NW,307,1.0,-999.0,-999,-99.99,,,-99.99,,2013-03-06 11:00:00,
2013-03-06 04:00:00,31.0,-99.9,-100.00,WNW,300,1.0,-999.0,-999,-99.99,,,-99.99,,2013-03-06 12:00:00,
2013-03-06 05:00:00,31.0,-99.9,-100.00,WNW,300,1.0,-999.0,-999,-99.99,,,-99.99,,2013-03-06 13:00:00,
2013-03-06 06:00:00,30.0,-99.9,-100.00,NNE,32,2.0,-999.0,-999,-99.99,,,-99.99,,2013-03-06 14:00:00,
2013-03-06 07:00:00,32.0,-99.9,-100.00,SSW,194,3.0,-999.0,-999,-99.99,,,-99.99,,2013-03-06 15:00:00,
2013-03-06 08:00:00,37.0,-99.9,-100.00,SSW,208,9.0,-999.0,-999,-99.99,,,-99.99,,2013-03-06 16:00:00,
2013-03-06 09:00:00,37.0,-99.9,-100.00,South,186,10.0,-999.0,-999,-99.99,,,-99.99,,2013-03-06 17:00:00,
2013-03-06 10:00:00,33.0,-99.9,-100.00,SSW,203,10.0,-999.0,-999,-99.99,,,-99.99,,2013-03-06 18:00:00,
2013-03-06 11:00:00,35.0,-99.9,-100.00,SW,218,9.0,-999.0,-999,-99.99,,,-99.99,,2013-03-06 19:00:00,
2013-03-06 12:00:00,34.0,-99.9,-100.00,SW,215,9.0,-999.0,-999,-99.99,,,-99.99,,2013-03-06 20:00:00,
2013-03-06 13:00:00,37.0,-99.9,-100.00,SW,233,13.0,-999.0,-999,-99.99,,,-99.99,,2013-03-06 21:00:00,
2013-03-06 14:00:00,37.0,-99.9,-100.00,WSW,240,15.0,-999.0,-999,-99.99,,,-99.99,,2013-03-06 22:00:00,
2013-03-06 15:00:00,36.0,-99.9,-100.00,WSW,237,12.0,-999.0,-999,-99.99,,,-99.99,,2013-03-06 23:00:00,
2013-03-06 16:00:00,37.0,-99.9,-100.00,SW,226,12.0,-999.0,-999,-99.99,,,-99.99,,2013-03-07 00:00:00,
2013-03-06 17:00:00,37.0,-99.9,-100.00,WSW,239,14.0,-999.0,-999,-99.99,,,-99.99,,2013-03-07 01:00:00,
2013-03-06 18:00:00,36.0,-99.9,-100.00,SW,232,10.0,-999.0,-999,-99.99,,,-99.99,,2013-03-07 02:00:00,
2013-03-06 19:00:00,34.0,-99.9,-100.00,SW,229,7.0,-999.0,-999,-99.99,,,-99.99,,2013-03-07 03:00:00,
2013-03-06 20:00:00,33.0,-99.9,-100.00,SW,220,9.0,-999.0,-999,-99.99,,,-99.99,,2013-03-07 04:00:00,
2013-03-06 20:52:00,33.0,-99.9,-100.00,SW,220,9.0,-999.0,-999,-99.99,,,-99.99,,2013-03-07 04:52:00,
2013-03-06 21:00:00,33.0,-99.9,-100.00,SW,215,9.0,-999.0,-999,-99.99,,,-99.99,,2013-03-07 05:00:00,
2013-03-06 22:00:00,33.0,-99.9,-100.00,SW,228,9.0,-999.0,-999,-99.99,,,-99.99,,2013-03-07 06:00:00,
2013-03-06 22:52:00,33.0,-99.9,-100.00,SW,228,9.0,-999.0,-999,-99.99,,,-99.99,,2013-03-07 06:52:00,
2013-03-06 23:00:00,32.0,-99.9,-100.00,SW,225,5.0,-999.0,-999,-99.99,,,-99.99,,2013-03-07 07:00:00,